KBKL

Burke Lakefront Airport

Cleveland, Ohio, USA
METAR KBKL 161453Z 22018G24KT 10SM FEW021 OVC065 02/M02 A2985 RMK AO2 SLP114 60000 T00171022 50001
Observed Flight Rules
Nov-16 @ 14:53 UTC (an hour ago) Visual Flight Rules
Wind Visibility Clouds
220° at 18 knots
 Gusting to 24 knots
10 miles
  • Few at 2,100' AGL
  • Overcast at 6,500' AGL
Temperatures Readings
Current 2°C / 36°F
Dewpoint -2°C / 28°F
Humidity 75%
Altimeter 29.85" Hg
Pressure 1011.4 hPa
Elevation 184
METAR KBKL 161453Z 22018G24KT 10SM FEW021 OVC065 02/M02 A2985 RMK AO2 SLP114 60000 T00171022 50001
Observed Flight Rules
Nov-16 @ 14:53 UTC
(an hour ago)
VFR
Wind Visibility
220° at 18 knots
 Gusting to 24 knots
10 miles
Clouds
  • Few at 2,100' AGL
  • Overcast at 6,500' AGL
Temperature Dewpoint
2°C / 36°F -2°C / 28°F
Humidity Altimeter Pressure
75% 29.85" Hg 1011.4 hPa